sensor_id;sensor_type;location;lat;lon;timestamp;temperature;humidity
11142;DHT22;5625;50.122;19.864;2022-07-23T00:00:59;24.40;99.90
11142;DHT22;5625;50.122;19.864;2022-07-23T00:03:27;24.40;99.90
11142;DHT22;5625;50.122;19.864;2022-07-23T00:05:55;24.40;99.90
11142;DHT22;5625;50.122;19.864;2022-07-23T00:08:24;24.30;99.90
11142;DHT22;5625;50.122;19.864;2022-07-23T00:10:52;24.30;99.90
11142;DHT22;5625;50.122;19.864;2022-07-23T00:13:20;24.20;99.90
11142;DHT22;5625;50.122;19.864;2022-07-23T00:15:50;24.20;99.90
11142;DHT22;5625;50.122;19.864;2022-07-23T00:18:18;24.10;99.90
11142;DHT22;5625;50.122;19.864;2022-07-23T00:20:46;24.10;99.90
11142;DHT22;5625;50.122;19.864;2022-07-23T00:23:14;24.10;99.90
11142;DHT22;5625;50.122;19.864;2022-07-23T00:25:43;24.00;99.90
11142;DHT22;5625;50.122;19.864;2022-07-23T00:28:14;24.00;99.90
11142;DHT22;5625;50.122;19.864;2022-07-23T00:30:42;24.00;99.90
11142;DHT22;5625;50.122;19.864;2022-07-23T00:33:11;24.00;99.90
11142;DHT22;5625;50.122;19.864;2022-07-23T00:35:40;24.00;99.90
11142;DHT22;5625;50.122;19.864;2022-07-23T00:38:10;23.90;99.90
11142;DHT22;5625;50.122;19.864;2022-07-23T00:40:38;23.90;99.90
11142;DHT22;5625;50.122;19.864;2022-07-23T00:43:07;23.90;99.90
11142;DHT22;5625;50.122;19.864;2022-07-23T00:45:35;23.80;99.90
11142;DHT22;5625;50.122;19.864;2022-07-23T00:48:03;23.80;99.90
11142;DHT22;5625;50.122;19.864;2022-07-23T00:50:33;23.80;99.90
11142;DHT22;5625;50.122;19.864;2022-07-23T00:53:01;23.70;99.90
11142;DHT22;5625;50.122;19.864;2022-07-23T00:55:30;23.70;99.90
11142;DHT22;5625;50.122;19.864;2022-07-23T00:57:58;23.60;99.90
11142;DHT22;5625;50.122;19.864;2022-07-23T01:00:27;23.60;99.90
11142;DHT22;5625;50.122;19.864;2022-07-23T01:02:55;23.60;99.90
11142;DHT22;5625;50.122;19.864;2022-07-23T01:05:23;23.50;99.90
11142;DHT22;5625;50.122;19.864;2022-07-23T01:07:53;23.50;99.90
11142;DHT22;5625;50.122;19.864;2022-07-23T01:10:23;23.50;99.90
11142;DHT22;5625;50.122;19.864;2022-07-23T01:13:02;23.50;99.90
11142;DHT22;5625;50.122;19.864;2022-07-23T01:15:31;23.40;99.90
11142;DHT22;5625;50.122;19.864;2022-07-23T01:18:00;23.40;99.90
11142;DHT22;5625;50.122;19.864;2022-07-23T01:20:28;23.30;99.90
11142;DHT22;5625;50.122;19.864;2022-07-23T01:22:58;23.30;99.90
11142;DHT22;5625;50.122;19.864;2022-07-23T01:25:26;23.20;99.90
11142;DHT22;5625;50.122;19.864;2022-07-23T01:27:54;23.10;99.90
11142;DHT22;5625;50.122;19.864;2022-07-23T01:30:23;23.10;99.90
11142;DHT22;5625;50.122;19.864;2022-07-23T01:32:51;23.10;99.90
11142;DHT22;5625;50.122;19.864;2022-07-23T01:35:19;23.00;99.90
11142;DHT22;5625;50.122;19.864;2022-07-23T01:37:47;23.00;99.90
11142;DHT22;5625;50.122;19.864;2022-07-23T01:40:17;22.90;99.90
11142;DHT22;5625;50.122;19.864;2022-07-23T01:42:47;22.90;99.90
11142;DHT22;5625;50.122;19.864;2022-07-23T01:45:16;22.80;99.90
11142;DHT22;5625;50.122;19.864;2022-07-23T01:47:44;22.80;99.90
11142;DHT22;5625;50.122;19.864;2022-07-23T01:50:12;22.80;99.90
11142;DHT22;5625;50.122;19.864;2022-07-23T01:52:40;22.80;99.90
11142;DHT22;5625;50.122;19.864;2022-07-23T01:55:09;22.70;99.90
11142;DHT22;5625;50.122;19.864;2022-07-23T01:57:45;22.70;99.90
11142;DHT22;5625;50.122;19.864;2022-07-23T02:00:14;22.60;99.90
11142;DHT22;5625;50.122;19.864;2022-07-23T02:02:42;22.60;99.90
11142;DHT22;5625;50.122;19.864;2022-07-23T02:05:10;22.60;99.90
11142;DHT22;5625;50.122;19.864;2022-07-23T02:07:39;22.50;99.90
11142;DHT22;5625;50.122;19.864;2022-07-23T02:10:07;22.60;99.90
11142;DHT22;5625;50.122;19.864;2022-07-23T02:12:36;22.50;99.90
11142;DHT22;5625;50.122;19.864;2022-07-23T02:15:06;22.50;99.90
11142;DHT22;5625;50.122;19.864;2022-07-23T02:17:36;22.40;99.90
11142;DHT22;5625;50.122;19.864;2022-07-23T02:20:05;22.40;99.90
11142;DHT22;5625;50.122;19.864;2022-07-23T02:22:33;22.40;99.90
11142;DHT22;5625;50.122;19.864;2022-07-23T02:25:02;22.30;99.90
11142;DHT22;5625;50.122;19.864;2022-07-23T02:27:30;22.30;99.90
11142;DHT22;5625;50.122;19.864;2022-07-23T02:29:58;22.30;99.90
11142;DHT22;5625;50.122;19.864;2022-07-23T02:32:28;22.20;99.90
11142;DHT22;5625;50.122;19.864;2022-07-23T02:34:56;22.20;99.90
11142;DHT22;5625;50.122;19.864;2022-07-23T02:37:24;22.20;99.90
11142;DHT22;5625;50.122;19.864;2022-07-23T02:39:52;22.20;99.90
11142;DHT22;5625;50.122;19.864;2022-07-23T02:42:21;22.10;99.90
11142;DHT22;5625;50.122;19.864;2022-07-23T02:44:50;22.10;99.90
11142;DHT22;5625;50.122;19.864;2022-07-23T02:47:18;22.00;99.90
11142;DHT22;5625;50.122;19.864;2022-07-23T02:49:47;22.00;99.90
11142;DHT22;5625;50.122;19.864;2022-07-23T02:52:15;22.00;99.90
11142;DHT22;5625;50.122;19.864;2022-07-23T02:54:44;22.00;99.90
11142;DHT22;5625;50.122;19.864;2022-07-23T02:57:12;21.90;99.90
11142;DHT22;5625;50.122;19.864;2022-07-23T02:59:40;22.00;99.90
11142;DHT22;5625;50.122;19.864;2022-07-23T03:02:08;21.90;99.90
11142;DHT22;5625;50.122;19.864;2022-07-23T03:04:36;21.90;99.90
11142;DHT22;5625;50.122;19.864;2022-07-23T03:07:05;21.80;99.90
11142;DHT22;5625;50.122;19.864;2022-07-23T03:09:33;21.80;99.90
11142;DHT22;5625;50.122;19.864;2022-07-23T03:12:01;21.80;99.90
11142;DHT22;5625;50.122;19.864;2022-07-23T03:14:29;21.80;99.90
11142;DHT22;5625;50.122;19.864;2022-07-23T03:16:57;21.80;99.90
11142;DHT22;5625;50.122;19.864;2022-07-23T03:19:26;21.80;99.90
11142;DHT22;5625;50.122;19.864;2022-07-23T03:21:55;21.70;99.90
11142;DHT22;5625;50.122;19.864;2022-07-23T03:24:24;21.70;99.90
11142;DHT22;5625;50.122;19.864;2022-07-23T03:27:12;21.70;99.90
11142;DHT22;5625;50.122;19.864;2022-07-23T03:29:40;21.60;99.90
11142;DHT22;5625;50.122;19.864;2022-07-23T03:32:08;21.60;99.90
11142;DHT22;5625;50.122;19.864;2022-07-23T03:34:37;21.60;99.90
11142;DHT22;5625;50.122;19.864;2022-07-23T03:37:06;21.60;99.90
11142;DHT22;5625;50.122;19.864;2022-07-23T03:39:35;21.60;99.90
11142;DHT22;5625;50.122;19.864;2022-07-23T03:42:04;21.60;99.90
11142;DHT22;5625;50.122;19.864;2022-07-23T03:44:32;21.60;99.90
11142;DHT22;5625;50.122;19.864;2022-07-23T03:47:00;21.60;99.90
11142;DHT22;5625;50.122;19.864;2022-07-23T03:49:31;21.60;99.90
11142;DHT22;5625;50.122;19.864;2022-07-23T03:52:00;21.60;99.90
11142;DHT22;5625;50.122;19.864;2022-07-23T03:54:28;21.60;99.90
11142;DHT22;5625;50.122;19.864;2022-07-23T03:56:58;21.60;99.90
11142;DHT22;5625;50.122;19.864;2022-07-23T03:59:26;21.60;99.90
11142;DHT22;5625;50.122;19.864;2022-07-23T04:01:54;21.50;99.90
11142;DHT22;5625;50.122;19.864;2022-07-23T04:04:22;21.50;99.90
11142;DHT22;5625;50.122;19.864;2022-07-23T04:06:50;21.60;99.90
11142;DHT22;5625;50.122;19.864;2022-07-23T04:09:18;21.60;99.90
11142;DHT22;5625;50.122;19.864;2022-07-23T04:11:46;21.60;99.90
11142;DHT22;5625;50.122;19.864;2022-07-23T04:14:16;21.60;99.90
11142;DHT22;5625;50.122;19.864;2022-07-23T04:16:44;21.60;99.90
11142;DHT22;5625;50.122;19.864;2022-07-23T04:19:12;21.60;99.90
11142;DHT22;5625;50.122;19.864;2022-07-23T04:21:40;21.60;99.90
11142;DHT22;5625;50.122;19.864;2022-07-23T04:24:08;21.60;99.90
11142;DHT22;5625;50.122;19.864;2022-07-23T04:26:36;21.70;99.90
11142;DHT22;5625;50.122;19.864;2022-07-23T04:29:04;21.60;99.90
11142;DHT22;5625;50.122;19.864;2022-07-23T04:31:33;21.60;99.90
11142;DHT22;5625;50.122;19.864;2022-07-23T04:34:03;21.60;99.90
11142;DHT22;5625;50.122;19.864;2022-07-23T04:36:31;21.70;99.90
11142;DHT22;5625;50.122;19.864;2022-07-23T04:38:59;21.70;99.90
11142;DHT22;5625;50.122;19.864;2022-07-23T04:41:28;21.70;99.90
11142;DHT22;5625;50.122;19.864;2022-07-23T04:43:56;21.70;99.90
11142;DHT22;5625;50.122;19.864;2022-07-23T04:46:24;21.70;99.90
11142;DHT22;5625;50.122;19.864;2022-07-23T04:48:54;21.70;99.90
11142;DHT22;5625;50.122;19.864;2022-07-23T04:51:22;21.80;99.90
11142;DHT22;5625;50.122;19.864;2022-07-23T04:53:50;21.90;99.90
11142;DHT22;5625;50.122;19.864;2022-07-23T04:56:18;21.90;99.90
11142;DHT22;5625;50.122;19.864;2022-07-23T04:58:46;22.00;99.90
11142;DHT22;5625;50.122;19.864;2022-07-23T05:01:14;22.10;99.90
11142;DHT22;5625;50.122;19.864;2022-07-23T05:03:43;22.20;99.90
11142;DHT22;5625;50.122;19.864;2022-07-23T05:06:12;22.30;99.90
11142;DHT22;5625;50.122;19.864;2022-07-23T05:08:40;22.30;99.90
11142;DHT22;5625;50.122;19.864;2022-07-23T05:11:08;22.40;99.90
11142;DHT22;5625;50.122;19.864;2022-07-23T05:13:36;22.60;99.90
11142;DHT22;5625;50.122;19.864;2022-07-23T05:16:05;22.70;99.90
11142;DHT22;5625;50.122;19.864;2022-07-23T05:18:33;22.80;99.90
11142;DHT22;5625;50.122;19.864;2022-07-23T05:21:01;22.90;99.90
11142;DHT22;5625;50.122;19.864;2022-07-23T05:23:30;23.00;99.90
11142;DHT22;5625;50.122;19.864;2022-07-23T05:25:58;23.20;99.90
11142;DHT22;5625;50.122;19.864;2022-07-23T05:28:26;23.40;99.90
11142;DHT22;5625;50.122;19.864;2022-07-23T05:30:54;23.70;99.90
11142;DHT22;5625;50.122;19.864;2022-07-23T05:33:22;23.90;99.90
11142;DHT22;5625;50.122;19.864;2022-07-23T05:35:50;24.10;99.90
11142;DHT22;5625;50.122;19.864;2022-07-23T05:38:18;24.20;99.90
11142;DHT22;5625;50.122;19.864;2022-07-23T05:40:48;24.40;99.90
11142;DHT22;5625;50.122;19.864;2022-07-23T05:43:16;24.60;99.90
11142;DHT22;5625;50.122;19.864;2022-07-23T05:45:44;24.80;99.90
11142;DHT22;5625;50.122;19.864;2022-07-23T05:48:12;24.80;99.90
11142;DHT22;5625;50.122;19.864;2022-07-23T05:50:40;25.00;99.90
11142;DHT22;5625;50.122;19.864;2022-07-23T05:53:08;25.20;99.90
11142;DHT22;5625;50.122;19.864;2022-07-23T05:55:36;25.50;99.90
11142;DHT22;5625;50.122;19.864;2022-07-23T05:58:06;25.70;99.90
11142;DHT22;5625;50.122;19.864;2022-07-23T06:00:35;26.00;99.90
11142;DHT22;5625;50.122;19.864;2022-07-23T06:03:03;26.20;99.90
11142;DHT22;5625;50.122;19.864;2022-07-23T06:05:32;26.50;99.90
11142;DHT22;5625;50.122;19.864;2022-07-23T06:08:00;26.70;99.90
11142;DHT22;5625;50.122;19.864;2022-07-23T06:10:28;27.00;99.90
11142;DHT22;5625;50.122;19.864;2022-07-23T06:12:56;27.40;99.90
11142;DHT22;5625;50.122;19.864;2022-07-23T06:15:29;27.70;99.90
11142;DHT22;5625;50.122;19.864;2022-07-23T06:17:58;28.00;99.90
11142;DHT22;5625;50.122;19.864;2022-07-23T06:20:28;28.30;99.90
11142;DHT22;5625;50.122;19.864;2022-07-23T06:22:56;28.60;99.90
11142;DHT22;5625;50.122;19.864;2022-07-23T06:25:24;28.90;99.90
11142;DHT22;5625;50.122;19.864;2022-07-23T06:27:55;29.20;99.90
11142;DHT22;5625;50.122;19.864;2022-07-23T06:30:23;29.40;99.90
11142;DHT22;5625;50.122;19.864;2022-07-23T06:32:53;29.70;99.90
11142;DHT22;5625;50.122;19.864;2022-07-23T06:35:21;29.90;99.90
11142;DHT22;5625;50.122;19.864;2022-07-23T06:37:49;30.10;99.90
11142;DHT22;5625;50.122;19.864;2022-07-23T06:40:17;30.40;99.90
11142;DHT22;5625;50.122;19.864;2022-07-23T06:42:45;30.70;99.90
11142;DHT22;5625;50.122;19.864;2022-07-23T06:45:13;31.00;99.90
11142;DHT22;5625;50.122;19.864;2022-07-23T06:47:41;31.30;99.70
11142;DHT22;5625;50.122;19.864;2022-07-23T06:50:11;31.50;99.40
11142;DHT22;5625;50.122;19.864;2022-07-23T06:52:39;31.70;99.30
11142;DHT22;5625;50.122;19.864;2022-07-23T06:55:09;31.90;99.40
11142;DHT22;5625;50.122;19.864;2022-07-23T06:57:37;32.20;99.10
11142;DHT22;5625;50.122;19.864;2022-07-23T07:00:06;32.40;98.50
11142;DHT22;5625;50.122;19.864;2022-07-23T07:02:34;32.70;98.20
11142;DHT22;5625;50.122;19.864;2022-07-23T07:05:03;32.80;98.10
11142;DHT22;5625;50.122;19.864;2022-07-23T07:07:34;33.10;97.60
11142;DHT22;5625;50.122;19.864;2022-07-23T07:10:02;33.30;97.20
11142;DHT22;5625;50.122;19.864;2022-07-23T07:12:30;33.50;96.70
11142;DHT22;5625;50.122;19.864;2022-07-23T07:14:59;33.70;96.70
11142;DHT22;5625;50.122;19.864;2022-07-23T07:17:27;34.00;96.40
11142;DHT22;5625;50.122;19.864;2022-07-23T07:19:55;34.30;95.50
11142;DHT22;5625;50.122;19.864;2022-07-23T07:22:23;34.50;95.20
11142;DHT22;5625;50.122;19.864;2022-07-23T07:24:55;34.70;94.80
11142;DHT22;5625;50.122;19.864;2022-07-23T07:27:23;34.90;93.50
11142;DHT22;5625;50.122;19.864;2022-07-23T07:29:51;35.10;92.90
11142;DHT22;5625;50.122;19.864;2022-07-23T07:32:20;35.20;92.30
11142;DHT22;5625;50.122;19.864;2022-07-23T07:35:08;35.10;91.90
11142;DHT22;5625;50.122;19.864;2022-07-23T07:37:37;35.50;91.90
11142;DHT22;5625;50.122;19.864;2022-07-23T07:40:08;35.40;92.00
11142;DHT22;5625;50.122;19.864;2022-07-23T07:42:44;35.50;91.50
11142;DHT22;5625;50.122;19.864;2022-07-23T07:45:12;35.60;90.70
11142;DHT22;5625;50.122;19.864;2022-07-23T07:47:40;35.80;91.30
11142;DHT22;5625;50.122;19.864;2022-07-23T07:50:09;35.80;90.90
11142;DHT22;5625;50.122;19.864;2022-07-23T07:52:38;36.00;91.00
11142;DHT22;5625;50.122;19.864;2022-07-23T07:55:09;36.20;90.60
11142;DHT22;5625;50.122;19.864;2022-07-23T07:57:38;36.20;89.40
11142;DHT22;5625;50.122;19.864;2022-07-23T08:00:09;36.10;88.10
11142;DHT22;5625;50.122;19.864;2022-07-23T08:02:42;35.80;87.00
11142;DHT22;5625;50.122;19.864;2022-07-23T08:05:11;36.20;86.10
11142;DHT22;5625;50.122;19.864;2022-07-23T08:07:39;36.50;84.30
11142;DHT22;5625;50.122;19.864;2022-07-23T08:10:09;36.80;85.00
11142;DHT22;5625;50.122;19.864;2022-07-23T08:12:39;37.00;84.20
11142;DHT22;5625;50.122;19.864;2022-07-23T08:15:08;37.00;84.90
11142;DHT22;5625;50.122;19.864;2022-07-23T08:17:40;37.20;82.50
11142;DHT22;5625;50.122;19.864;2022-07-23T08:20:10;37.20;82.50
11142;DHT22;5625;50.122;19.864;2022-07-23T08:22:43;37.50;82.20
11142;DHT22;5625;50.122;19.864;2022-07-23T08:25:12;37.80;81.80
11142;DHT22;5625;50.122;19.864;2022-07-23T08:27:40;37.90;82.00
11142;DHT22;5625;50.122;19.864;2022-07-23T08:30:09;38.10;82.90
11142;DHT22;5625;50.122;19.864;2022-07-23T08:32:51;38.40;82.90
11142;DHT22;5625;50.122;19.864;2022-07-23T08:35:24;38.60;82.30
11142;DHT22;5625;50.122;19.864;2022-07-23T08:37:54;38.70;82.40
11142;DHT22;5625;50.122;19.864;2022-07-23T08:40:24;38.90;81.80
11142;DHT22;5625;50.122;19.864;2022-07-23T08:42:53;39.00;81.60
11142;DHT22;5625;50.122;19.864;2022-07-23T08:45:22;39.00;79.90
11142;DHT22;5625;50.122;19.864;2022-07-23T08:47:52;39.00;79.30
11142;DHT22;5625;50.122;19.864;2022-07-23T08:50:21;39.10;78.60
11142;DHT22;5625;50.122;19.864;2022-07-23T08:52:51;38.90;76.50
11142;DHT22;5625;50.122;19.864;2022-07-23T08:55:21;38.10;76.60
11142;DHT22;5625;50.122;19.864;2022-07-23T08:57:52;38.20;77.10
11142;DHT22;5625;50.122;19.864;2022-07-23T09:00:22;38.30;76.10
11142;DHT22;5625;50.122;19.864;2022-07-23T09:02:50;38.30;76.80
11142;DHT22;5625;50.122;19.864;2022-07-23T09:05:20;38.40;76.70
11142;DHT22;5625;50.122;19.864;2022-07-23T09:08:10;38.40;76.00
11142;DHT22;5625;50.122;19.864;2022-07-23T09:11:00;38.50;76.80
11142;DHT22;5625;50.122;19.864;2022-07-23T09:13:35;38.70;76.00
11142;DHT22;5625;50.122;19.864;2022-07-23T09:16:07;38.90;75.90
11142;DHT22;5625;50.122;19.864;2022-07-23T09:18:41;39.00;73.40
11142;DHT22;5625;50.122;19.864;2022-07-23T09:21:19;39.00;74.50
11142;DHT22;5625;50.122;19.864;2022-07-23T09:23:49;39.20;73.70
11142;DHT22;5625;50.122;19.864;2022-07-23T09:26:36;39.40;73.40
11142;DHT22;5625;50.122;19.864;2022-07-23T09:29:12;39.60;72.00
11142;DHT22;5625;50.122;19.864;2022-07-23T09:31:46;39.60;71.10
11142;DHT22;5625;50.122;19.864;2022-07-23T09:34:18;39.70;70.90
11142;DHT22;5625;50.122;19.864;2022-07-23T09:36:50;39.80;70.30
11142;DHT22;5625;50.122;19.864;2022-07-23T09:39:25;39.70;69.60
11142;DHT22;5625;50.122;19.864;2022-07-23T09:41:54;39.70;69.20
11142;DHT22;5625;50.122;19.864;2022-07-23T09:44:23;39.80;69.00
11142;DHT22;5625;50.122;19.864;2022-07-23T09:46:59;40.00;69.40
11142;DHT22;5625;50.122;19.864;2022-07-23T09:49:28;40.00;68.30
11142;DHT22;5625;50.122;19.864;2022-07-23T09:51:58;40.20;67.70
11142;DHT22;5625;50.122;19.864;2022-07-23T09:54:31;40.20;67.00
11142;DHT22;5625;50.122;19.864;2022-07-23T09:57:02;40.30;66.50
11142;DHT22;5625;50.122;19.864;2022-07-23T09:59:34;40.00;64.60
11142;DHT22;5625;50.122;19.864;2022-07-23T10:02:05;39.70;65.20
11142;DHT22;5625;50.122;19.864;2022-07-23T10:04:34;39.80;65.10
11142;DHT22;5625;50.122;19.864;2022-07-23T10:07:06;39.60;65.30
11142;DHT22;5625;50.122;19.864;2022-07-23T10:09:38;39.80;65.30
11142;DHT22;5625;50.122;19.864;2022-07-23T10:12:10;40.00;65.30
11142;DHT22;5625;50.122;19.864;2022-07-23T10:14:45;40.30;65.60
11142;DHT22;5625;50.122;19.864;2022-07-23T10:17:16;40.40;65.80
11142;DHT22;5625;50.122;19.864;2022-07-23T10:19:45;40.60;65.90
11142;DHT22;5625;50.122;19.864;2022-07-23T10:22:19;40.60;65.00
11142;DHT22;5625;50.122;19.864;2022-07-23T10:24:53;40.60;65.10
11142;DHT22;5625;50.122;19.864;2022-07-23T10:27:58;40.20;62.20
11142;DHT22;5625;50.122;19.864;2022-07-23T10:30:38;39.80;63.40
11142;DHT22;5625;50.122;19.864;2022-07-23T10:33:30;39.20;64.10
11142;DHT22;5625;50.122;19.864;2022-07-23T10:36:04;38.50;64.60
11142;DHT22;5625;50.122;19.864;2022-07-23T10:38:42;38.90;65.10
11142;DHT22;5625;50.122;19.864;2022-07-23T10:41:15;39.30;64.90
11142;DHT22;5625;50.122;19.864;2022-07-23T10:44:06;39.70;65.40
11142;DHT22;5625;50.122;19.864;2022-07-23T10:46:42;40.10;65.30
11142;DHT22;5625;50.122;19.864;2022-07-23T10:49:26;40.20;65.90
11142;DHT22;5625;50.122;19.864;2022-07-23T10:52:24;40.30;65.50
11142;DHT22;5625;50.122;19.864;2022-07-23T10:54:54;40.30;64.80
11142;DHT22;5625;50.122;19.864;2022-07-23T10:57:23;40.40;64.50
11142;DHT22;5625;50.122;19.864;2022-07-23T11:00:15;40.20;62.10
11142;DHT22;5625;50.122;19.864;2022-07-23T11:02:46;40.00;63.20
11142;DHT22;5625;50.122;19.864;2022-07-23T11:05:16;40.20;62.70
11142;DHT22;5625;50.122;19.864;2022-07-23T11:08:14;40.30;62.70
11142;DHT22;5625;50.122;19.864;2022-07-23T11:10:46;40.20;62.50
11142;DHT22;5625;50.122;19.864;2022-07-23T11:13:28;40.30;63.70
11142;DHT22;5625;50.122;19.864;2022-07-23T11:19:04;40.50;63.80
11142;DHT22;5625;50.122;19.864;2022-07-23T11:21:46;40.60;63.50
11142;DHT22;5625;50.122;19.864;2022-07-23T11:24:17;40.70;63.20
11142;DHT22;5625;50.122;19.864;2022-07-23T11:27:03;40.80;63.10
11142;DHT22;5625;50.122;19.864;2022-07-23T11:29:48;40.90;62.40
11142;DHT22;5625;50.122;19.864;2022-07-23T11:32:32;40.90;61.60
11142;DHT22;5625;50.122;19.864;2022-07-23T11:35:22;41.00;61.90
11142;DHT22;5625;50.122;19.864;2022-07-23T11:37:51;41.10;62.20
11142;DHT22;5625;50.122;19.864;2022-07-23T11:40:25;41.00;62.30
11142;DHT22;5625;50.122;19.864;2022-07-23T11:42:57;40.90;62.80
11142;DHT22;5625;50.122;19.864;2022-07-23T11:45:31;40.90;62.70
11142;DHT22;5625;50.122;19.864;2022-07-23T11:47:59;40.80;62.70
11142;DHT22;5625;50.122;19.864;2022-07-23T11:50:29;40.80;63.20
11142;DHT22;5625;50.122;19.864;2022-07-23T11:52:58;40.80;63.00
11142;DHT22;5625;50.122;19.864;2022-07-23T11:55:26;40.80;63.00
11142;DHT22;5625;50.122;19.864;2022-07-23T11:57:55;40.70;62.00
11142;DHT22;5625;50.122;19.864;2022-07-23T12:00:28;40.80;62.50
11142;DHT22;5625;50.122;19.864;2022-07-23T12:02:58;40.80;62.40
11142;DHT22;5625;50.122;19.864;2022-07-23T12:05:31;40.70;61.10
11142;DHT22;5625;50.122;19.864;2022-07-23T12:07:59;40.60;62.30
11142;DHT22;5625;50.122;19.864;2022-07-23T12:10:29;40.70;62.70
11142;DHT22;5625;50.122;19.864;2022-07-23T12:13:00;40.80;62.20
11142;DHT22;5625;50.122;19.864;2022-07-23T12:15:32;40.80;61.50
11142;DHT22;5625;50.122;19.864;2022-07-23T12:18:01;40.80;61.70
11142;DHT22;5625;50.122;19.864;2022-07-23T12:20:33;40.90;62.40
11142;DHT22;5625;50.122;19.864;2022-07-23T12:23:03;40.90;62.20
11142;DHT22;5625;50.122;19.864;2022-07-23T12:25:34;40.80;61.80
11142;DHT22;5625;50.122;19.864;2022-07-23T12:28:04;40.80;62.40
11142;DHT22;5625;50.122;19.864;2022-07-23T12:30:37;40.80;62.70
11142;DHT22;5625;50.122;19.864;2022-07-23T12:33:06;40.80;62.50
11142;DHT22;5625;50.122;19.864;2022-07-23T12:35:38;40.80;62.60
11142;DHT22;5625;50.122;19.864;2022-07-23T12:38:09;40.80;61.60
11142;DHT22;5625;50.122;19.864;2022-07-23T12:40:42;40.80;62.60
11142;DHT22;5625;50.122;19.864;2022-07-23T12:43:12;40.80;61.60
11142;DHT22;5625;50.122;19.864;2022-07-23T12:45:48;40.70;61.50
11142;DHT22;5625;50.122;19.864;2022-07-23T12:48:19;40.70;61.70
11142;DHT22;5625;50.122;19.864;2022-07-23T12:50:57;40.70;62.00
11142;DHT22;5625;50.122;19.864;2022-07-23T12:53:27;40.60;61.50
11142;DHT22;5625;50.122;19.864;2022-07-23T12:56:03;40.60;61.80
11142;DHT22;5625;50.122;19.864;2022-07-23T12:58:44;40.50;61.80
11142;DHT22;5625;50.122;19.864;2022-07-23T13:01:27;40.40;61.60
11142;DHT22;5625;50.122;19.864;2022-07-23T13:03:58;40.30;61.70
11142;DHT22;5625;50.122;19.864;2022-07-23T13:06:30;40.20;61.40
11142;DHT22;5625;50.122;19.864;2022-07-23T13:08:58;40.10;61.80
11142;DHT22;5625;50.122;19.864;2022-07-23T13:11:29;39.90;61.50
11142;DHT22;5625;50.122;19.864;2022-07-23T13:13:57;39.70;61.20
11142;DHT22;5625;50.122;19.864;2022-07-23T13:16:28;39.60;61.60
11142;DHT22;5625;50.122;19.864;2022-07-23T13:18:57;39.40;61.90
11142;DHT22;5625;50.122;19.864;2022-07-23T13:21:27;39.30;62.30
11142;DHT22;5625;50.122;19.864;2022-07-23T13:23:57;39.20;62.80
11142;DHT22;5625;50.122;19.864;2022-07-23T13:26:25;39.20;62.70
11142;DHT22;5625;50.122;19.864;2022-07-23T13:28:53;39.20;62.90
11142;DHT22;5625;50.122;19.864;2022-07-23T13:31:22;39.10;63.10
11142;DHT22;5625;50.122;19.864;2022-07-23T13:33:50;39.10;62.90
11142;DHT22;5625;50.122;19.864;2022-07-23T13:36:18;38.90;62.90
11142;DHT22;5625;50.122;19.864;2022-07-23T13:38:46;38.90;63.50
11142;DHT22;5625;50.122;19.864;2022-07-23T13:41:18;39.00;64.40
11142;DHT22;5625;50.122;19.864;2022-07-23T13:43:46;39.00;63.80
11142;DHT22;5625;50.122;19.864;2022-07-23T13:46:14;39.00;63.70
11142;DHT22;5625;50.122;19.864;2022-07-23T13:48:42;38.90;63.90
11142;DHT22;5625;50.122;19.864;2022-07-23T13:51:11;38.90;63.40
11142;DHT22;5625;50.122;19.864;2022-07-23T13:53:39;39.00;63.50
11142;DHT22;5625;50.122;19.864;2022-07-23T13:56:08;39.00;63.20
11142;DHT22;5625;50.122;19.864;2022-07-23T13:58:37;38.90;63.00
11142;DHT22;5625;50.122;19.864;2022-07-23T14:01:07;38.80;62.80
11142;DHT22;5625;50.122;19.864;2022-07-23T14:03:35;38.60;62.80
11142;DHT22;5625;50.122;19.864;2022-07-23T14:06:03;38.50;63.10
11142;DHT22;5625;50.122;19.864;2022-07-23T14:08:41;38.30;63.60
11142;DHT22;5625;50.122;19.864;2022-07-23T14:11:10;38.20;64.10
11142;DHT22;5625;50.122;19.864;2022-07-23T14:13:40;38.10;64.60
11142;DHT22;5625;50.122;19.864;2022-07-23T14:16:08;38.00;64.60
11142;DHT22;5625;50.122;19.864;2022-07-23T14:18:36;37.90;65.00
11142;DHT22;5625;50.122;19.864;2022-07-23T14:21:04;37.80;65.40
11142;DHT22;5625;50.122;19.864;2022-07-23T14:23:35;37.60;65.80
11142;DHT22;5625;50.122;19.864;2022-07-23T14:26:03;37.50;66.00
11142;DHT22;5625;50.122;19.864;2022-07-23T14:28:32;37.30;66.20
11142;DHT22;5625;50.122;19.864;2022-07-23T14:31:03;37.20;67.20
11142;DHT22;5625;50.122;19.864;2022-07-23T14:33:31;37.10;67.60
11142;DHT22;5625;50.122;19.864;2022-07-23T14:36:00;36.90;67.90
11142;DHT22;5625;50.122;19.864;2022-07-23T14:38:29;36.80;68.30
11142;DHT22;5625;50.122;19.864;2022-07-23T14:40:58;36.60;68.40
11142;DHT22;5625;50.122;19.864;2022-07-23T14:43:26;36.40;68.20
11142;DHT22;5625;50.122;19.864;2022-07-23T14:45:55;36.20;67.80
11142;DHT22;5625;50.122;19.864;2022-07-23T14:48:24;36.00;68.80
11142;DHT22;5625;50.122;19.864;2022-07-23T14:50:56;35.90;68.70
11142;DHT22;5625;50.122;19.864;2022-07-23T14:53:24;35.70;68.90
11142;DHT22;5625;50.122;19.864;2022-07-23T14:55:52;35.60;69.40
11142;DHT22;5625;50.122;19.864;2022-07-23T14:58:21;35.40;69.60
11142;DHT22;5625;50.122;19.864;2022-07-23T15:00:49;35.20;69.80
11142;DHT22;5625;50.122;19.864;2022-07-23T15:03:17;35.20;70.20
11142;DHT22;5625;50.122;19.864;2022-07-23T15:05:47;35.00;70.50
11142;DHT22;5625;50.122;19.864;2022-07-23T15:08:15;34.90;71.00
11142;DHT22;5625;50.122;19.864;2022-07-23T15:10:48;34.70;71.60
11142;DHT22;5625;50.122;19.864;2022-07-23T15:13:17;34.30;72.10
11142;DHT22;5625;50.122;19.864;2022-07-23T15:15:45;33.80;73.70
11142;DHT22;5625;50.122;19.864;2022-07-23T15:18:21;33.40;74.70
11142;DHT22;5625;50.122;19.864;2022-07-23T15:20:51;32.90;77.30
11142;DHT22;5625;50.122;19.864;2022-07-23T15:23:19;32.50;82.70
11142;DHT22;5625;50.122;19.864;2022-07-23T15:25:47;32.10;86.10
11142;DHT22;5625;50.122;19.864;2022-07-23T15:28:16;31.80;88.90
11142;DHT22;5625;50.122;19.864;2022-07-23T15:30:47;31.70;90.20
11142;DHT22;5625;50.122;19.864;2022-07-23T15:33:16;31.50;91.80
11142;DHT22;5625;50.122;19.864;2022-07-23T15:35:47;31.40;93.20
11142;DHT22;5625;50.122;19.864;2022-07-23T15:38:16;30.90;94.10
11142;DHT22;5625;50.122;19.864;2022-07-23T15:40:52;30.50;94.40
11142;DHT22;5625;50.122;19.864;2022-07-23T15:43:21;29.90;95.50
11142;DHT22;5625;50.122;19.864;2022-07-23T15:45:50;29.50;97.90
11142;DHT22;5625;50.122;19.864;2022-07-23T15:48:19;29.70;99.40
11142;DHT22;5625;50.122;19.864;2022-07-23T15:50:48;29.60;99.90
11142;DHT22;5625;50.122;19.864;2022-07-23T15:53:18;29.60;99.90